createdAt,value
2018-12-21T00:01:26.387Z,13.60
2018-12-21T00:06:43.857Z,10.80
2018-12-21T00:12:01.433Z,16.80
2018-12-21T00:17:19.195Z,5.83
2018-12-21T00:22:36.659Z,8.07
2018-12-21T00:27:54.134Z,9.63
2018-12-21T00:33:17.194Z,12.17
2018-12-21T00:38:40.536Z,9.53
2018-12-21T00:43:59.994Z,15.17
2018-12-21T00:49:17.456Z,10.37
2018-12-21T00:54:34.940Z,7.20
2018-12-21T00:59:52.485Z,9.63
2018-12-21T01:05:10.009Z,13.18
2018-12-21T01:10:27.622Z,12.00
2018-12-21T01:15:45.449Z,10.90
2018-12-21T01:21:02.911Z,17.80
2018-12-21T01:26:20.372Z,10.03
2018-12-21T01:31:37.827Z,7.07
2018-12-21T01:36:55.286Z,9.93
2018-12-21T01:42:12.753Z,8.97
2018-12-21T01:47:30.297Z,11.00
2018-12-21T01:52:47.765Z,13.43
2018-12-21T01:58:05.222Z,13.40
2018-12-21T02:03:22.702Z,10.72
2018-12-21T02:08:40.257Z,7.60
2018-12-21T02:13:57.715Z,9.97
2018-12-21T02:19:15.186Z,11.50
2018-12-21T02:24:32.637Z,7.20
2018-12-21T02:29:50.309Z,12.60
2018-12-21T02:35:07.763Z,7.97
2018-12-21T02:40:25.226Z,7.73
2018-12-21T02:45:42.686Z,9.77
2018-12-21T02:51:00.158Z,5.30
2018-12-21T02:56:17.620Z,5.47
2018-12-21T03:01:35.096Z,5.37
2018-12-21T03:06:52.553Z,10.43
2018-12-21T03:12:10.007Z,11.57
2018-12-21T03:17:27.463Z,9.47
2018-12-21T03:22:44.917Z,8.73
2018-12-21T03:28:02.378Z,4.93
2018-12-21T03:33:19.861Z,7.07
2018-12-21T03:38:37.321Z,4.87
2018-12-21T03:43:54.791Z,8.30
2018-12-21T03:49:12.243Z,7.43
2018-12-21T03:54:29.697Z,10.33
2018-12-21T03:59:47.144Z,13.27
2018-12-21T04:05:05.069Z,9.10
2018-12-21T04:10:22.532Z,14.00
2018-12-21T04:15:39.992Z,9.53
2018-12-21T04:20:57.584Z,15.70
2018-12-21T04:26:15.119Z,7.43
2018-12-21T04:31:32.579Z,4.50
2018-12-21T04:36:50.050Z,6.73
2018-12-21T04:42:07.775Z,3.57
2018-12-21T04:47:25.225Z,2.80
2018-12-21T04:52:43.436Z,9.13
2018-12-21T04:58:01.268Z,8.10
2018-12-21T05:03:18.724Z,9.13
2018-12-21T05:08:36.437Z,10.37
2018-12-21T05:13:53.895Z,5.03
2018-12-21T05:19:11.357Z,8.10
2018-12-21T05:24:28.821Z,7.60
2018-12-21T05:29:46.289Z,6.10
2018-12-21T05:35:04.262Z,6.33
2018-12-21T05:40:21.804Z,5.60
2018-12-21T05:45:39.265Z,3.90
2018-12-21T05:50:56.985Z,6.47
2018-12-21T05:56:14.444Z,5.77
2018-12-21T06:01:31.913Z,2.10
2018-12-21T06:06:49.391Z,4.37
2018-12-21T06:12:06.836Z,5.83
2018-12-21T06:17:24.304Z,4.80
2018-12-21T06:22:41.767Z,3.20
2018-12-21T06:27:59.444Z,2.53
2018-12-21T06:33:16.900Z,3.00
2018-12-21T06:38:34.366Z,2.07
2018-12-21T06:43:51.931Z,1.20
2018-12-21T06:49:09.384Z,2.43
2018-12-21T06:54:26.837Z,1.33
2018-12-21T06:59:44.300Z,2.87
2018-12-21T07:05:01.768Z,3.53
2018-12-21T07:10:19.223Z,2.57
2018-12-21T07:15:36.970Z,1.50
2018-12-21T07:20:54.461Z,2.77
2018-12-21T07:26:11.924Z,2.40
2018-12-21T07:31:29.386Z,2.23
2018-12-21T07:36:46.848Z,2.90
2018-12-21T07:42:04.303Z,1.20
2018-12-21T07:47:21.782Z,2.07
2018-12-21T07:52:39.269Z,1.30
2018-12-21T07:57:58.631Z,3.13
2018-12-21T08:03:16.226Z,1.87
2018-12-21T08:08:33.704Z,2.87
2018-12-21T08:13:51.174Z,0.90
2018-12-21T08:19:08.629Z,1.10
2018-12-21T08:24:26.339Z,1.15
2018-12-21T08:29:43.794Z,2.77
2018-12-21T08:35:01.337Z,1.00
2018-12-21T08:40:18.806Z,2.45
2018-12-21T08:45:36.268Z,0.93
2018-12-21T08:50:53.804Z,0.85
2018-12-21T08:56:11.301Z,2.10
2018-12-21T09:01:29.009Z,1.83
2018-12-21T09:06:46.460Z,0.90
2018-12-21T09:12:04.080Z,0.80
2018-12-21T09:17:21.534Z,1.27
2018-12-21T09:22:38.997Z,0.80
2018-12-21T09:27:56.452Z,0.80
2018-12-21T09:33:13.912Z,1.92
2018-12-21T09:38:31.368Z,0.80
2018-12-21T09:43:48.818Z,1.87
2018-12-21T09:49:06.285Z,1.03
2018-12-21T09:54:23.741Z,0.70
2018-12-21T09:59:41.209Z,0.60
2018-12-21T10:04:58.922Z,0.83
2018-12-21T10:10:16.380Z,0.70
2018-12-21T10:15:33.843Z,0.60
2018-12-21T10:20:51.298Z,0.60
2018-12-21T10:26:08.785Z,0.83
2018-12-21T10:31:26.492Z,1.93
2018-12-21T10:36:44.005Z,0.78
2018-12-21T10:42:01.460Z,1.07
2018-12-21T10:47:18.921Z,5.93
2018-12-21T10:52:36.364Z,1.07
2018-12-21T10:57:53.817Z,1.40
2018-12-21T11:03:11.280Z,1.83
2018-12-21T11:08:28.805Z,4.23
2018-12-21T11:13:46.280Z,5.07
2018-12-21T11:19:03.741Z,3.87
2018-12-21T11:24:21.201Z,4.40
2018-12-21T11:29:38.657Z,4.47
2018-12-21T11:34:56.140Z,3.97
2018-12-21T11:40:13.930Z,5.37
2018-12-21T11:45:31.453Z,3.43
2018-12-21T11:50:48.945Z,4.40
2018-12-21T11:56:06.437Z,3.03
2018-12-21T12:01:23.908Z,3.87
2018-12-21T12:06:41.389Z,5.20
2018-12-21T12:11:58.861Z,4.63
2018-12-21T12:17:16.317Z,1.10
2018-12-21T12:22:33.789Z,1.20
2018-12-21T12:27:51.270Z,2.77
2018-12-21T12:33:08.739Z,2.17
2018-12-21T12:38:26.202Z,1.10
2018-12-21T12:43:43.678Z,1.20
2018-12-21T12:49:01.186Z,1.13
2018-12-21T12:54:18.656Z,3.90
2018-12-21T12:59:36.129Z,1.85
2018-12-21T13:04:53.629Z,1.47
2018-12-21T13:10:11.084Z,1.53
2018-12-21T13:15:28.653Z,1.07
2018-12-21T13:20:46.126Z,2.60
2018-12-21T13:26:03.671Z,0.93
2018-12-21T13:31:21.156Z,1.57
2018-12-21T13:36:38.925Z,1.27
2018-12-21T13:41:56.398Z,0.97
2018-12-21T13:47:13.872Z,1.35
2018-12-21T13:52:31.332Z,1.30
2018-12-21T13:57:48.795Z,1.40
2018-12-21T14:03:06.653Z,1.77
2018-12-21T14:08:24.125Z,4.20
2018-12-21T14:13:41.915Z,3.23
2018-12-21T14:18:59.588Z,4.27
2018-12-21T14:24:17.071Z,7.97
2018-12-21T14:29:34.520Z,4.00
2018-12-21T14:34:51.989Z,4.33
2018-12-21T14:40:09.485Z,6.53
2018-12-21T14:45:26.932Z,7.30
2018-12-21T14:50:44.389Z,9.90
2018-12-21T14:56:01.857Z,12.68
2018-12-21T15:01:19.408Z,9.87
2018-12-21T15:06:36.969Z,9.05
2018-12-21T15:11:54.569Z,12.27
2018-12-21T15:17:12.024Z,9.93
2018-12-21T15:22:29.518Z,20.37
2018-12-21T15:27:46.991Z,16.00
2018-12-21T15:33:04.506Z,25.07
2018-12-21T15:38:21.986Z,17.20
2018-12-21T15:43:39.486Z,32.80
2018-12-21T15:48:56.944Z,20.97
2018-12-21T15:54:14.504Z,17.03
2018-12-21T15:59:32.053Z,19.90
2018-12-21T16:04:49.530Z,20.82
2018-12-21T16:10:09.566Z,24.75
2018-12-21T16:15:27.029Z,20.80
2018-12-21T16:20:44.517Z,20.70
2018-12-21T16:26:03.577Z,31.63
2018-12-21T16:31:21.414Z,19.67
2018-12-21T16:36:38.880Z,33.87
2018-12-21T16:41:56.348Z,20.80
2018-12-21T16:47:13.830Z,28.20
2018-12-21T16:52:31.332Z,26.10
2018-12-21T16:57:49.217Z,32.38
2018-12-21T17:03:15.376Z,32.43
2018-12-21T17:08:26.175Z,28.77
2018-12-21T17:13:43.636Z,33.07
2018-12-21T17:19:01.581Z,33.53
2018-12-21T17:24:19.049Z,40.20
2018-12-21T17:29:36.529Z,37.23
2018-12-21T17:34:55.891Z,45.90
2018-12-21T17:40:13.485Z,36.98
2018-12-21T17:45:30.948Z,52.30
2018-12-21T17:50:48.414Z,33.87
2018-12-21T17:56:05.876Z,38.80
2018-12-21T18:01:23.349Z,39.47
2018-12-21T18:06:41.362Z,47.07
2018-12-21T18:11:59.313Z,44.30
2018-12-21T18:17:16.854Z,37.83
2018-12-21T18:22:34.334Z,39.97
2018-12-21T18:27:51.796Z,36.27
2018-12-21T18:33:10.805Z,40.50
2018-12-21T18:38:28.830Z,38.17
2018-12-21T18:43:47.269Z,34.00
2018-12-21T18:49:04.763Z,31.23
2018-12-21T18:54:22.241Z,42.43
2018-12-21T18:59:39.708Z,31.53
2018-12-21T19:04:57.178Z,33.20
2018-12-21T19:10:14.876Z,30.75
2018-12-21T19:15:32.389Z,32.00
2018-12-21T19:20:49.861Z,33.40
2018-12-21T19:26:07.320Z,30.47
2018-12-21T19:31:25.131Z,35.37
2018-12-21T19:36:42.596Z,27.33
2018-12-21T19:42:00.056Z,30.50
2018-12-21T19:47:17.646Z,39.83
2018-12-21T19:52:35.160Z,27.67
2018-12-21T19:57:53.002Z,26.27
2018-12-21T20:03:10.475Z,22.20
2018-12-21T20:08:28.073Z,29.70
2018-12-21T20:13:45.559Z,34.73
2018-12-21T20:19:03.043Z,28.87
2018-12-21T20:24:23.069Z,34.03
2018-12-21T20:29:40.419Z,27.93
2018-12-21T20:34:57.939Z,19.17
2018-12-21T20:40:15.395Z,28.62
2018-12-21T20:45:32.870Z,30.87
2018-12-21T20:50:50.583Z,36.63
2018-12-21T20:56:08.049Z,31.67
2018-12-21T21:01:25.515Z,33.00
2018-12-21T21:06:43.293Z,33.00
2018-12-21T21:12:00.751Z,36.57
2018-12-21T21:17:18.225Z,45.57
2018-12-21T21:22:35.747Z,30.50
2018-12-21T21:27:53.221Z,40.17
2018-12-21T21:33:10.689Z,36.97
2018-12-21T21:38:28.172Z,32.80
2018-12-21T21:43:45.882Z,48.00
2018-12-21T21:49:03.375Z,49.17
2018-12-21T21:54:21.187Z,45.63
2018-12-21T21:59:38.693Z,42.53
2018-12-21T22:04:56.155Z,46.50
2018-12-21T22:10:13.620Z,43.83
2018-12-21T22:15:31.088Z,43.50
2018-12-21T22:20:48.990Z,36.63
2018-12-21T22:26:06.462Z,39.87
2018-12-21T22:31:24.043Z,41.07
2018-12-21T22:36:41.530Z,37.30
2018-12-21T22:41:59.073Z,24.65
2018-12-21T22:47:16.552Z,47.60
2018-12-21T22:52:34.012Z,41.40
2018-12-21T22:57:56.409Z,36.47
2018-12-21T23:03:10.966Z,26.25
2018-12-21T23:08:28.437Z,43.73
2018-12-21T23:13:45.917Z,44.00
2018-12-21T23:19:03.373Z,46.83
2018-12-21T23:24:20.846Z,52.07
2018-12-21T23:29:38.304Z,40.43
2018-12-21T23:34:55.761Z,43.20
2018-12-21T23:40:15.351Z,49.42
2018-12-21T23:45:32.977Z,48.60
2018-12-21T23:50:50.448Z,51.00
2018-12-21T23:56:11.958Z,37.60
